Time;durP1;ratioP1;P1;durP2;ratioP2;P2;SDS_P1;SDS_P2;PMS_P1;PMS_P2;Temp;Humidity;BMP_temperature;BMP_pressure;BME280_temperature;BME280_humidity;BME280_pressure;Samples;Min_cycle;Max_cycle;Signal;HPM_P1;HPM_P2
2022/10/07 00:00:00;;;;;;;1.0;1.0;;;;;;;10.6;100.0;102510;;;;
2022/10/07 00:01:00;;;;;;;1.0;1.0;;;;;;;10.6;100.0;102510;;;;
2022/10/07 00:02:00;;;;;;;1.0;1.0;;;;;;;10.6;100.0;102510;;;;
2022/10/07 00:03:00;;;;;;;1.0;1.0;;;;;;;10.6;100.0;102510;;;;
2022/10/07 00:04:00;;;;;;;1.0;1.0;;;;;;;10.6;100.0;102510;;;;
2022/10/07 00:05:00;;;;;;;1.0;1.0;;;;;;;10.6;100.0;102510;;;;
2022/10/07 00:06:03;;;;;;;1.0;1.0;;;;;;;10.6;100.0;102510;;;;
2022/10/07 00:07:00;;;;;;;1.0;1.0;;;;;;;10.6;100.0;102510;;;;
2022/10/07 00:08:00;;;;;;;1.0;1.0;;;;;;;10.5;100.0;102510;;;;
2022/10/07 00:09:01;;;;;;;1.0;1.0;;;;;;;10.5;100.0;102510;;;;
2022/10/07 00:10:00;;;;;;;1.0;1.0;;;;;;;10.5;100.0;102510;;;;
2022/10/07 00:11:04;;;;;;;1.0;1.0;;;;;;;10.3;100.0;102510;;;;
2022/10/07 00:12:00;;;;;;;1.0;1.0;;;;;;;10.3;100.0;102510;;;;
2022/10/07 00:13:01;;;;;;;1.0;1.0;;;;;;;10.3;100.0;102510;;;;
2022/10/07 00:14:02;;;;;;;1.0;1.0;;;;;;;10.4;100.0;102510;;;;
2022/10/07 00:15:00;;;;;;;1.0;1.0;;;;;;;10.4;100.0;102510;;;;
2022/10/07 00:16:01;;;;;;;1.0;1.0;;;;;;;10.5;100.0;102510;;;;
2022/10/07 00:17:00;;;;;;;1.0;1.0;;;;;;;10.5;100.0;102510;;;;
2022/10/07 00:18:00;;;;;;;1.0;1.0;;;;;;;10.4;100.0;102510;;;;
2022/10/07 00:19:01;;;;;;;1.0;1.0;;;;;;;10.4;100.0;102510;;;;
2022/10/07 00:20:00;;;;;;;1.0;1.0;;;;;;;10.4;100.0;102500;;;;
2022/10/07 00:21:02;;;;;;;1.0;1.0;;;;;;;10.4;100.0;102500;;;;
2022/10/07 00:22:00;;;;;;;1.0;1.0;;;;;;;10.4;100.0;102500;;;;
2022/10/07 00:23:00;;;;;;;1.0;1.0;;;;;;;10.4;100.0;102500;;;;
2022/10/07 00:24:00;;;;;;;1.0;1.0;;;;;;;10.4;100.0;102490;;;;
2022/10/07 00:25:00;;;;;;;1.0;1.0;;;;;;;10.4;100.0;102490;;;;
2022/10/07 00:26:01;;;;;;;1.0;1.0;;;;;;;10.5;100.0;102500;;;;
2022/10/07 00:27:00;;;;;;;1.0;1.0;;;;;;;10.5;100.0;102500;;;;
2022/10/07 00:28:00;;;;;;;0.8;0.8;;;;;;;10.4;100.0;102500;;;;
2022/10/07 00:29:00;;;;;;;0.8;0.8;;;;;;;10.4;100.0;102500;;;;
2022/10/07 00:30:00;;;;;;;0.8;0.8;;;;;;;10.4;100.0;102500;;;;
2022/10/07 00:31:01;;;;;;;0.8;0.8;;;;;;;10.4;100.0;102500;;;;
2022/10/07 00:32:00;;;;;;;0.8;0.8;;;;;;;10.4;100.0;102490;;;;
2022/10/07 00:33:00;;;;;;;0.8;0.8;;;;;;;10.4;100.0;102490;;;;
2022/10/07 00:34:00;;;;;;;0.8;0.8;;;;;;;10.3;100.0;102490;;;;
2022/10/07 00:35:00;;;;;;;0.8;0.8;;;;;;;10.3;100.0;102490;;;;
2022/10/07 00:36:00;;;;;;;0.8;0.8;;;;;;;10.4;100.0;102500;;;;
2022/10/07 00:37:00;;;;;;;0.8;0.8;;;;;;;10.4;100.0;102500;;;;
2022/10/07 00:38:00;;;;;;;0.8;0.8;;;;;;;10.3;100.0;102490;;;;
2022/10/07 00:39:01;;;;;;;0.8;0.8;;;;;;;10.3;100.0;102490;;;;
2022/10/07 00:40:00;;;;;;;0.8;0.8;;;;;;;10.1;100.0;102490;;;;
2022/10/07 00:41:00;;;;;;;0.8;0.8;;;;;;;10.1;100.0;102490;;;;
2022/10/07 00:42:00;;;;;;;0.8;0.8;;;;;;;10.0;100.0;102480;;;;
2022/10/07 00:43:10;;;;;;;0.8;0.8;;;;;;;10.2;100.0;102480;;;;
2022/10/07 00:44:10;;;;;;;0.8;0.8;;;;;;;10.2;100.0;102480;;;;
2022/10/07 00:45:00;;;;;;;0.8;0.8;;;;;;;10.2;100.0;102480;;;;
2022/10/07 00:46:04;;;;;;;0.8;0.8;;;;;;;10.2;100.0;102480;;;;
2022/10/07 00:47:03;;;;;;;0.8;0.8;;;;;;;10.2;100.0;102470;;;;
2022/10/07 00:48:00;;;;;;;0.9;0.9;;;;;;;10.2;100.0;102470;;;;
2022/10/07 00:49:05;;;;;;;0.9;0.9;;;;;;;10.0;100.0;102470;;;;
2022/10/07 00:50:05;;;;;;;0.9;0.9;;;;;;;10.0;100.0;102470;;;;
2022/10/07 00:51:00;;;;;;;0.9;0.9;;;;;;;10.0;100.0;102470;;;;
2022/10/07 00:52:00;;;;;;;0.9;0.9;;;;;;;10.1;100.0;102470;;;;
2022/10/07 00:53:01;;;;;;;0.9;0.9;;;;;;;10.1;100.0;102470;;;;
2022/10/07 00:54:01;;;;;;;0.9;0.9;;;;;;;10.1;100.0;102470;;;;
2022/10/07 00:55:03;;;;;;;0.9;0.9;;;;;;;10.1;100.0;102470;;;;
2022/10/07 00:56:01;;;;;;;0.9;0.9;;;;;;;10.1;100.0;102470;;;;
2022/10/07 00:57:00;;;;;;;0.9;0.9;;;;;;;10.1;100.0;102470;;;;
2022/10/07 00:58:01;;;;;;;0.9;0.9;;;;;;;10.1;100.0;102460;;;;
2022/10/07 00:59:00;;;;;;;0.9;0.9;;;;;;;10.1;100.0;102460;;;;
2022/10/07 01:00:01;;;;;;;0.9;0.9;;;;;;;10.0;100.0;102460;;;;
2022/10/07 01:01:00;;;;;;;0.9;0.9;;;;;;;10.0;100.0;102460;;;;
2022/10/07 01:02:00;;;;;;;0.9;0.9;;;;;;;10.0;100.0;102450;;;;
2022/10/07 01:03:00;;;;;;;0.9;0.9;;;;;;;10.0;100.0;102450;;;;
2022/10/07 01:04:00;;;;;;;0.9;0.9;;;;;;;10.1;100.0;102450;;;;
2022/10/07 01:05:02;;;;;;;0.9;0.9;;;;;;;10.1;100.0;102450;;;;
2022/10/07 01:06:00;;;;;;;0.9;0.9;;;;;;;10.0;100.0;102450;;;;
2022/10/07 01:07:00;;;;;;;0.9;0.9;;;;;;;10.0;100.0;102450;;;;
2022/10/07 01:08:00;;;;;;;1.7;1.7;;;;;;;9.9;100.0;102450;;;;
2022/10/07 01:09:00;;;;;;;1.7;1.7;;;;;;;9.9;100.0;102450;;;;
2022/10/07 01:10:00;;;;;;;1.7;1.7;;;;;;;9.9;100.0;102450;;;;
2022/10/07 01:11:13;;;;;;;1.7;1.7;;;;;;;9.9;100.0;102450;;;;
2022/10/07 01:12:06;;;;;;;1.7;1.7;;;;;;;9.9;100.0;102450;;;;
2022/10/07 01:13:00;;;;;;;1.7;1.7;;;;;;;9.9;100.0;102450;;;;
2022/10/07 01:14:06;;;;;;;1.7;1.7;;;;;;;10.0;100.0;102450;;;;
2022/10/07 01:15:10;;;;;;;1.7;1.7;;;;;;;9.9;100.0;102450;;;;
2022/10/07 01:16:09;;;;;;;1.7;1.7;;;;;;;9.9;100.0;102450;;;;
2022/10/07 01:17:03;;;;;;;1.7;1.7;;;;;;;9.9;100.0;102440;;;;
2022/10/07 01:18:06;;;;;;;1.7;1.7;;;;;;;9.9;100.0;102440;;;;
2022/10/07 01:19:10;;;;;;;1.7;1.7;;;;;;;9.9;100.0;102440;;;;
2022/10/07 01:20:10;;;;;;;1.7;1.7;;;;;;;9.9;100.0;102440;;;;
2022/10/07 01:21:05;;;;;;;1.7;1.7;;;;;;;10.0;100.0;102440;;;;
2022/10/07 01:22:10;;;;;;;1.7;1.7;;;;;;;10.0;100.0;102440;;;;
2022/10/07 01:23:10;;;;;;;1.7;1.7;;;;;;;9.9;100.0;102440;;;;
2022/10/07 01:24:00;;;;;;;1.7;1.7;;;;;;;9.9;100.0;102440;;;;
2022/10/07 01:25:06;;;;;;;1.7;1.7;;;;;;;9.9;100.0;102430;;;;
2022/10/07 01:26:09;;;;;;;1.7;1.7;;;;;;;9.9;100.0;102430;;;;
2022/10/07 01:27:04;;;;;;;1.7;1.7;;;;;;;9.8;100.0;102430;;;;
2022/10/07 01:28:06;;;;;;;1.0;1.0;;;;;;;9.8;100.0;102430;;;;
2022/10/07 01:29:03;;;;;;;1.0;1.0;;;;;;;9.9;100.0;102430;;;;
2022/10/07 01:30:03;;;;;;;1.0;1.0;;;;;;;9.9;100.0;102430;;;;
2022/10/07 01:31:04;;;;;;;1.0;1.0;;;;;;;9.9;100.0;102430;;;;
2022/10/07 01:32:03;;;;;;;1.0;1.0;;;;;;;9.9;100.0;102430;;;;
2022/10/07 01:33:03;;;;;;;1.0;1.0;;;;;;;9.9;100.0;102430;;;;
2022/10/07 01:34:01;;;;;;;1.0;1.0;;;;;;;9.7;100.0;102420;;;;
2022/10/07 01:35:00;;;;;;;1.0;1.0;;;;;;;9.7;100.0;102420;;;;
2022/10/07 01:36:05;;;;;;;1.0;1.0;;;;;;;9.7;100.0;102420;;;;
2022/10/07 01:37:01;;;;;;;1.0;1.0;;;;;;;9.7;100.0;102420;;;;
2022/10/07 01:38:04;;;;;;;1.0;1.0;;;;;;;9.8;100.0;102410;;;;
2022/10/07 01:39:02;;;;;;;1.0;1.0;;;;;;;9.8;100.0;102410;;;;
2022/10/07 01:40:04;;;;;;;1.0;1.0;;;;;;;9.8;100.0;102410;;;;
2022/10/07 01:41:03;;;;;;;1.0;1.0;;;;;;;9.7;100.0;102410;;;;
2022/10/07 01:42:00;;;;;;;1.0;1.0;;;;;;;9.7;100.0;102410;;;;
2022/10/07 01:43:00;;;;;;;1.0;1.0;;;;;;;9.7;100.0;102410;;;;
2022/10/07 01:44:00;;;;;;;1.0;1.0;;;;;;;9.7;100.0;102410;;;;
2022/10/07 01:45:01;;;;;;;1.0;1.0;;;;;;;9.7;100.0;102410;;;;
2022/10/07 01:46:01;;;;;;;1.0;1.0;;;;;;;9.8;100.0;102400;;;;
2022/10/07 01:47:00;;;;;;;1.0;1.0;;;;;;;9.8;100.0;102400;;;;
2022/10/07 01:48:00;;;;;;;1.1;1.1;;;;;;;9.7;100.0;102400;;;;
2022/10/07 01:49:00;;;;;;;1.1;1.1;;;;;;;9.7;100.0;102400;;;;
2022/10/07 01:50:00;;;;;;;1.1;1.1;;;;;;;9.8;100.0;102390;;;;
2022/10/07 01:51:01;;;;;;;1.1;1.1;;;;;;;9.8;100.0;102390;;;;
2022/10/07 01:52:10;;;;;;;1.1;1.1;;;;;;;9.6;100.0;102400;;;;
2022/10/07 01:53:11;;;;;;;1.1;1.1;;;;;;;9.7;100.0;102390;;;;
2022/10/07 01:54:01;;;;;;;1.1;1.1;;;;;;;9.7;100.0;102390;;;;
2022/10/07 01:55:00;;;;;;;1.1;1.1;;;;;;;9.7;100.0;102390;;;;
2022/10/07 01:56:01;;;;;;;1.1;1.1;;;;;;;9.6;100.0;102390;;;;
2022/10/07 01:57:10;;;;;;;1.1;1.1;;;;;;;9.6;100.0;102380;;;;
2022/10/07 01:58:10;;;;;;;1.1;1.1;;;;;;;9.6;100.0;102380;;;;
2022/10/07 01:59:10;;;;;;;1.1;1.1;;;;;;;9.4;100.0;102380;;;;
2022/10/07 02:00:04;;;;;;;1.1;1.1;;;;;;;9.4;100.0;102380;;;;
2022/10/07 02:01:00;;;;;;;1.1;1.1;;;;;;;9.4;100.0;102380;;;;
2022/10/07 02:02:06;;;;;;;1.1;1.1;;;;;;;9.4;100.0;102380;;;;
2022/10/07 02:03:10;;;;;;;1.1;1.1;;;;;;;9.4;100.0;102380;;;;
2022/10/07 02:04:10;;;;;;;1.1;1.1;;;;;;;9.4;100.0;102380;;;;
2022/10/07 02:05:10;;;;;;;1.1;1.1;;;;;;;9.5;100.0;102370;;;;
2022/10/07 02:06:05;;;;;;;1.1;1.1;;;;;;;9.5;100.0;102370;;;;
2022/10/07 02:07:10;;;;;;;1.1;1.1;;;;;;;9.4;100.0;102370;;;;
2022/10/07 02:08:10;;;;;;;1.9;1.8;;;;;;;9.4;100.0;102370;;;;
2022/10/07 02:09:02;;;;;;;1.9;1.8;;;;;;;9.4;100.0;102370;;;;
2022/10/07 02:10:11;;;;;;;1.9;1.8;;;;;;;9.4;100.0;102370;;;;
2022/10/07 02:11:09;;;;;;;1.9;1.8;;;;;;;9.4;100.0;102370;;;;
2022/10/07 02:12:11;;;;;;;1.9;1.8;;;;;;;9.4;100.0;102370;;;;
2022/10/07 02:13:11;;;;;;;1.9;1.8;;;;;;;9.5;100.0;102360;;;;
2022/10/07 02:14:10;;;;;;;1.9;1.8;;;;;;;9.5;100.0;102360;;;;
2022/10/07 02:15:00;;;;;;;1.9;1.8;;;;;;;9.5;100.0;102360;;;;
2022/10/07 02:16:10;;;;;;;1.9;1.8;;;;;;;9.4;100.0;102360;;;;
2022/10/07 02:17:02;;;;;;;1.9;1.8;;;;;;;9.4;100.0;102360;;;;
2022/10/07 02:18:02;;;;;;;1.9;1.8;;;;;;;9.5;100.0;102360;;;;
2022/10/07 02:19:02;;;;;;;1.9;1.8;;;;;;;9.5;100.0;102360;;;;
2022/10/07 02:20:01;;;;;;;1.9;1.8;;;;;;;9.4;100.0;102360;;;;
2022/10/07 02:21:03;;;;;;;1.9;1.8;;;;;;;9.5;100.0;102360;;;;
2022/10/07 02:22:01;;;;;;;1.9;1.8;;;;;;;9.5;100.0;102360;;;;
2022/10/07 02:23:01;;;;;;;1.9;1.8;;;;;;;9.5;100.0;102360;;;;
2022/10/07 02:24:00;;;;;;;1.9;1.8;;;;;;;9.6;100.0;102360;;;;
2022/10/07 02:25:00;;;;;;;1.9;1.8;;;;;;;9.6;100.0;102360;;;;
2022/10/07 02:26:02;;;;;;;1.9;1.8;;;;;;;9.5;100.0;102350;;;;
2022/10/07 02:27:02;;;;;;;1.9;1.8;;;;;;;9.5;100.0;102350;;;;
2022/10/07 02:28:04;;;;;;;1.1;1.1;;;;;;;9.4;100.0;102350;;;;
2022/10/07 02:29:03;;;;;;;1.1;1.1;;;;;;;9.4;100.0;102360;;;;
2022/10/07 02:30:04;;;;;;;1.1;1.1;;;;;;;9.4;100.0;102360;;;;
2022/10/07 02:31:02;;;;;;;1.1;1.1;;;;;;;9.4;100.0;102360;;;;
2022/10/07 02:32:02;;;;;;;1.1;1.1;;;;;;;9.4;100.0;102360;;;;
2022/10/07 02:33:02;;;;;;;1.1;1.1;;;;;;;9.4;100.0;102360;;;;
2022/10/07 02:34:02;;;;;;;1.1;1.1;;;;;;;9.5;100.0;102350;;;;
2022/10/07 02:35:04;;;;;;;1.1;1.1;;;;;;;9.5;100.0;102350;;;;
2022/10/07 02:36:03;;;;;;;1.1;1.1;;;;;;;9.5;100.0;102350;;;;
2022/10/07 02:37:02;;;;;;;1.1;1.1;;;;;;;9.5;100.0;102350;;;;
2022/10/07 02:38:03;;;;;;;1.1;1.1;;;;;;;9.4;100.0;102340;;;;
2022/10/07 02:39:00;;;;;;;1.1;1.1;;;;;;;9.4;100.0;102340;;;;
2022/10/07 02:40:00;;;;;;;1.1;1.1;;;;;;;9.4;100.0;102340;;;;
2022/10/07 02:41:06;;;;;;;1.1;1.1;;;;;;;9.3;100.0;102340;;;;
2022/10/07 02:42:03;;;;;;;1.1;1.1;;;;;;;9.3;100.0;102340;;;;
2022/10/07 02:43:07;;;;;;;1.1;1.1;;;;;;;9.4;100.0;102330;;;;
2022/10/07 02:44:03;;;;;;;1.1;1.1;;;;;;;9.4;100.0;102330;;;;
2022/10/07 02:45:08;;;;;;;1.1;1.1;;;;;;;9.3;100.0;102330;;;;
2022/10/07 02:46:03;;;;;;;1.1;1.1;;;;;;;9.3;100.0;102330;;;;
2022/10/07 02:47:00;;;;;;;1.1;1.1;;;;;;;9.3;100.0;102330;;;;
2022/10/07 02:48:04;;;;;;;1.2;1.1;;;;;;;9.3;100.0;102330;;;;
2022/10/07 02:49:04;;;;;;;1.2;1.1;;;;;;;9.4;100.0;102330;;;;
2022/10/07 02:50:03;;;;;;;1.2;1.1;;;;;;;9.4;100.0;102330;;;;
2022/10/07 02:51:03;;;;;;;1.2;1.1;;;;;;;9.4;100.0;102330;;;;
2022/10/07 02:52:10;;;;;;;1.2;1.1;;;;;;;9.4;100.0;102330;;;;
2022/10/07 02:53:01;;;;;;;1.2;1.1;;;;;;;9.4;100.0;102330;;;;
2022/10/07 02:54:01;;;;;;;1.2;1.1;;;;;;;9.3;100.0;102330;;;;
2022/10/07 02:55:03;;;;;;;1.2;1.1;;;;;;;9.3;100.0;102330;;;;
2022/10/07 02:56:01;;;;;;;1.2;1.1;;;;;;;9.3;100.0;102320;;;;
2022/10/07 02:57:00;;;;;;;1.2;1.1;;;;;;;9.3;100.0;102320;;;;
2022/10/07 02:58:03;;;;;;;1.2;1.1;;;;;;;9.3;100.0;102320;;;;
2022/10/07 02:59:01;;;;;;;1.2;1.1;;;;;;;9.3;100.0;102320;;;;
2022/10/07 03:00:00;;;;;;;1.2;1.1;;;;;;;9.3;100.0;102320;;;;
2022/10/07 03:01:01;;;;;;;1.2;1.1;;;;;;;9.3;100.0;102320;;;;
2022/10/07 03:02:01;;;;;;;1.2;1.1;;;;;;;9.3;100.0;102320;;;;
2022/10/07 03:03:01;;;;;;;1.2;1.1;;;;;;;9.3;100.0;102320;;;;
2022/10/07 03:04:00;;;;;;;1.2;1.1;;;;;;;9.2;100.0;102320;;;;
2022/10/07 03:05:00;;;;;;;1.2;1.1;;;;;;;9.2;100.0;102320;;;;
2022/10/07 03:06:00;;;;;;;1.2;1.1;;;;;;;9.2;100.0;102310;;;;
2022/10/07 03:07:00;;;;;;;1.2;1.1;;;;;;;9.2;100.0;102310;;;;
2022/10/07 03:08:02;;;;;;;1.0;1.0;;;;;;;9.2;100.0;102310;;;;
2022/10/07 03:09:00;;;;;;;1.0;1.0;;;;;;;9.2;100.0;102310;;;;
2022/10/07 03:10:00;;;;;;;1.0;1.0;;;;;;;9.1;100.0;102310;;;;
2022/10/07 03:11:00;;;;;;;1.0;1.0;;;;;;;9.1;100.0;102310;;;;
2022/10/07 03:12:00;;;;;;;1.0;1.0;;;;;;;9.1;100.0;102310;;;;
2022/10/07 03:13:03;;;;;;;1.0;1.0;;;;;;;9.1;100.0;102310;;;;
2022/10/07 03:14:00;;;;;;;1.0;1.0;;;;;;;9.0;100.0;102310;;;;
2022/10/07 03:15:00;;;;;;;1.0;1.0;;;;;;;9.0;100.0;102310;;;;
2022/10/07 03:16:04;;;;;;;1.0;1.0;;;;;;;9.0;100.0;102300;;;;
2022/10/07 03:17:00;;;;;;;1.0;1.0;;;;;;;9.0;100.0;102300;;;;
2022/10/07 03:18:00;;;;;;;1.0;1.0;;;;;;;9.0;100.0;102300;;;;
2022/10/07 03:19:00;;;;;;;1.0;1.0;;;;;;;9.0;100.0;102300;;;;
2022/10/07 03:20:00;;;;;;;1.0;1.0;;;;;;;9.0;100.0;102300;;;;
2022/10/07 03:21:00;;;;;;;1.0;1.0;;;;;;;9.0;100.0;102300;;;;
2022/10/07 03:22:01;;;;;;;1.0;1.0;;;;;;;9.1;100.0;102300;;;;
2022/10/07 03:23:00;;;;;;;1.0;1.0;;;;;;;9.1;100.0;102300;;;;
2022/10/07 03:24:03;;;;;;;1.0;1.0;;;;;;;9.2;100.0;102300;;;;
2022/10/07 03:25:00;;;;;;;1.0;1.0;;;;;;;9.2;100.0;102300;;;;
2022/10/07 03:26:00;;;;;;;1.0;1.0;;;;;;;9.2;100.0;102300;;;;
2022/10/07 03:27:00;;;;;;;1.0;1.0;;;;;;;9.2;100.0;102300;;;;
2022/10/07 03:28:00;;;;;;;1.0;1.0;;;;;;;9.2;100.0;102290;;;;
2022/10/07 03:29:00;;;;;;;1.0;1.0;;;;;;;9.2;100.0;102290;;;;
2022/10/07 03:30:00;;;;;;;1.0;1.0;;;;;;;9.1;100.0;102290;;;;
2022/10/07 03:31:08;;;;;;;1.0;1.0;;;;;;;9.2;100.0;102290;;;;
2022/10/07 03:32:00;;;;;;;1.0;1.0;;;;;;;9.2;100.0;102290;;;;
2022/10/07 03:33:00;;;;;;;1.0;1.0;;;;;;;9.2;100.0;102290;;;;
2022/10/07 03:34:00;;;;;;;1.0;1.0;;;;;;;9.1;100.0;102290;;;;
2022/10/07 03:35:00;;;;;;;1.0;1.0;;;;;;;9.1;100.0;102290;;;;
2022/10/07 03:36:00;;;;;;;1.0;1.0;;;;;;;9.1;100.0;102280;;;;
2022/10/07 03:37:00;;;;;;;1.0;1.0;;;;;;;9.1;100.0;102280;;;;
2022/10/07 03:38:00;;;;;;;1.0;1.0;;;;;;;9.1;100.0;102280;;;;
2022/10/07 03:39:00;;;;;;;1.0;1.0;;;;;;;9.1;100.0;102280;;;;
2022/10/07 03:40:00;;;;;;;1.0;1.0;;;;;;;9.0;100.0;102280;;;;
2022/10/07 03:41:02;;;;;;;1.0;1.0;;;;;;;9.0;100.0;102280;;;;
2022/10/07 03:42:00;;;;;;;1.0;1.0;;;;;;;9.1;100.0;102280;;;;
2022/10/07 03:43:00;;;;;;;1.0;1.0;;;;;;;9.1;100.0;102280;;;;
2022/10/07 03:44:00;;;;;;;1.0;1.0;;;;;;;9.1;100.0;102280;;;;
2022/10/07 03:45:00;;;;;;;1.0;1.0;;;;;;;9.1;100.0;102280;;;;
2022/10/07 03:46:01;;;;;;;1.0;1.0;;;;;;;9.1;100.0;102270;;;;
2022/10/07 03:47:00;;;;;;;1.0;1.0;;;;;;;9.1;100.0;102270;;;;
2022/10/07 03:48:00;;;;;;;1.2;1.2;;;;;;;9.0;100.0;102270;;;;
2022/10/07 03:49:00;;;;;;;1.2;1.2;;;;;;;9.0;100.0;102270;;;;
2022/10/07 03:50:00;;;;;;;1.2;1.2;;;;;;;9.0;100.0;102270;;;;
2022/10/07 03:51:00;;;;;;;1.2;1.2;;;;;;;9.0;100.0;102270;;;;
2022/10/07 03:52:01;;;;;;;1.2;1.2;;;;;;;9.0;100.0;102270;;;;
2022/10/07 03:53:00;;;;;;;1.2;1.2;;;;;;;9.0;100.0;102270;;;;
2022/10/07 03:54:00;;;;;;;1.2;1.2;;;;;;;9.0;100.0;102270;;;;
2022/10/07 03:55:00;;;;;;;1.2;1.2;;;;;;;9.0;100.0;102270;;;;
2022/10/07 03:56:00;;;;;;;1.2;1.2;;;;;;;9.0;100.0;102270;;;;
2022/10/07 03:57:00;;;;;;;1.2;1.2;;;;;;;9.0;100.0;102270;;;;
2022/10/07 03:58:00;;;;;;;1.2;1.2;;;;;;;9.1;100.0;102280;;;;
2022/10/07 03:59:00;;;;;;;1.2;1.2;;;;;;;9.1;100.0;102280;;;;
2022/10/07 04:00:00;;;;;;;1.2;1.2;;;;;;;8.9;100.0;102280;;;;
2022/10/07 04:01:09;;;;;;;1.2;1.2;;;;;;;9.0;100.0;102270;;;;
2022/10/07 04:02:00;;;;;;;1.2;1.2;;;;;;;9.0;100.0;102270;;;;
2022/10/07 04:03:00;;;;;;;1.2;1.2;;;;;;;9.0;100.0;102270;;;;
2022/10/07 04:04:00;;;;;;;1.2;1.2;;;;;;;9.1;100.0;102270;;;;
2022/10/07 04:05:00;;;;;;;1.2;1.2;;;;;;;9.1;100.0;102270;;;;
2022/10/07 04:06:01;;;;;;;1.2;1.2;;;;;;;9.0;100.0;102270;;;;
2022/10/07 04:07:00;;;;;;;1.2;1.2;;;;;;;9.0;100.0;102270;;;;
2022/10/07 04:08:00;;;;;;;1.3;1.3;;;;;;;9.1;100.0;102270;;;;
2022/10/07 04:09:00;;;;;;;1.3;1.3;;;;;;;9.1;100.0;102270;;;;
2022/10/07 04:10:00;;;;;;;1.3;1.3;;;;;;;9.0;100.0;102260;;;;
2022/10/07 04:11:01;;;;;;;1.3;1.3;;;;;;;9.0;100.0;102260;;;;
2022/10/07 04:12:00;;;;;;;1.3;1.3;;;;;;;8.9;100.0;102260;;;;
2022/10/07 04:13:00;;;;;;;1.3;1.3;;;;;;;8.9;100.0;102260;;;;
2022/10/07 04:14:00;;;;;;;1.3;1.3;;;;;;;9.0;100.0;102260;;;;
2022/10/07 04:15:00;;;;;;;1.3;1.3;;;;;;;9.0;100.0;102260;;;;
2022/10/07 04:16:04;;;;;;;1.3;1.3;;;;;;;9.0;100.0;102260;;;;
2022/10/07 04:17:00;;;;;;;1.3;1.3;;;;;;;9.0;100.0;102260;;;;
2022/10/07 04:18:00;;;;;;;1.3;1.3;;;;;;;8.8;100.0;102260;;;;
2022/10/07 04:19:00;;;;;;;1.3;1.3;;;;;;;8.8;100.0;102260;;;;
2022/10/07 04:20:00;;;;;;;1.3;1.3;;;;;;;8.8;100.0;102270;;;;
2022/10/07 04:21:00;;;;;;;1.3;1.3;;;;;;;8.8;100.0;102270;;;;
2022/10/07 04:22:05;;;;;;;1.3;1.3;;;;;;;8.6;100.0;102260;;;;
2022/10/07 04:23:00;;;;;;;1.3;1.3;;;;;;;8.6;100.0;102260;;;;
2022/10/07 04:24:00;;;;;;;1.3;1.3;;;;;;;8.6;100.0;102260;;;;
2022/10/07 04:26:00;;;;;;;1.3;1.3;;;;;;;8.6;100.0;102260;;;;
2022/10/07 04:27:00;;;;;;;1.3;1.3;;;;;;;8.6;100.0;102260;;;;
2022/10/07 04:28:02;;;;;;;1.2;1.2;;;;;;;8.7;100.0;102260;;;;
2022/10/07 04:29:00;;;;;;;1.2;1.2;;;;;;;8.7;100.0;102260;;;;
2022/10/07 04:30:00;;;;;;;1.2;1.2;;;;;;;8.8;100.0;102260;;;;
2022/10/07 04:31:02;;;;;;;1.2;1.2;;;;;;;8.8;100.0;102260;;;;
2022/10/07 04:32:00;;;;;;;1.2;1.2;;;;;;;8.7;100.0;102250;;;;
2022/10/07 04:33:01;;;;;;;1.2;1.2;;;;;;;8.7;100.0;102250;;;;
2022/10/07 04:34:00;;;;;;;1.2;1.2;;;;;;;8.7;100.0;102250;;;;
2022/10/07 04:35:02;;;;;;;1.2;1.2;;;;;;;8.7;100.0;102250;;;;
2022/10/07 04:36:04;;;;;;;1.2;1.2;;;;;;;8.7;100.0;102250;;;;
2022/10/07 04:37:00;;;;;;;1.2;1.2;;;;;;;8.7;100.0;102250;;;;
2022/10/07 04:38:00;;;;;;;1.2;1.2;;;;;;;8.7;100.0;102260;;;;
2022/10/07 04:39:00;;;;;;;1.2;1.2;;;;;;;8.7;100.0;102260;;;;
2022/10/07 04:40:01;;;;;;;1.2;1.2;;;;;;;8.6;100.0;102250;;;;
2022/10/07 04:41:02;;;;;;;1.2;1.2;;;;;;;8.6;100.0;102250;;;;
2022/10/07 04:42:00;;;;;;;1.2;1.2;;;;;;;8.6;100.0;102250;;;;
2022/10/07 04:44:00;;;;;;;1.2;1.2;;;;;;;8.7;100.0;102250;;;;
2022/10/07 04:45:00;;;;;;;1.2;1.2;;;;;;;8.7;100.0;102250;;;;
2022/10/07 04:46:01;;;;;;;1.2;1.2;;;;;;;8.7;100.0;102250;;;;
2022/10/07 04:47:00;;;;;;;1.2;1.2;;;;;;;8.7;100.0;102250;;;;
2022/10/07 04:48:00;;;;;;;1.2;1.2;;;;;;;8.8;100.0;102250;;;;
2022/10/07 04:49:00;;;;;;;1.2;1.2;;;;;;;8.8;100.0;102250;;;;
2022/10/07 04:50:01;;;;;;;1.2;1.2;;;;;;;8.7;100.0;102250;;;;
2022/10/07 04:51:01;;;;;;;1.2;1.2;;;;;;;8.7;100.0;102250;;;;
2022/10/07 04:52:00;;;;;;;1.2;1.2;;;;;;;8.7;100.0;102250;;;;
2022/10/07 04:53:00;;;;;;;1.2;1.2;;;;;;;8.7;100.0;102250;;;;
2022/10/07 04:54:00;;;;;;;1.2;1.2;;;;;;;8.7;100.0;102250;;;;
2022/10/07 04:55:00;;;;;;;1.2;1.2;;;;;;;8.7;100.0;102250;;;;
2022/10/07 04:56:00;;;;;;;1.2;1.2;;;;;;;8.7;100.0;102250;;;;
2022/10/07 04:57:00;;;;;;;1.2;1.2;;;;;;;8.7;100.0;102250;;;;
2022/10/07 04:58:00;;;;;;;1.2;1.2;;;;;;;8.6;100.0;102250;;;;
2022/10/07 04:59:00;;;;;;;1.2;1.2;;;;;;;8.6;100.0;102250;;;;
2022/10/07 05:00:00;;;;;;;1.2;1.2;;;;;;;8.6;100.0;102250;;;;
2022/10/07 05:01:00;;;;;;;1.2;1.2;;;;;;;8.6;100.0;102250;;;;
2022/10/07 05:02:00;;;;;;;1.2;1.2;;;;;;;8.6;100.0;102250;;;;
2022/10/07 05:03:00;;;;;;;1.2;1.2;;;;;;;8.6;100.0;102250;;;;
2022/10/07 05:04:00;;;;;;;1.2;1.2;;;;;;;8.7;100.0;102250;;;;
2022/10/07 05:05:00;;;;;;;1.2;1.2;;;;;;;8.7;100.0;102250;;;;
2022/10/07 05:06:05;;;;;;;1.2;1.2;;;;;;;8.6;100.0;102240;;;;
2022/10/07 05:07:00;;;;;;;1.1;1.1;;;;;;;8.6;100.0;102240;;;;
2022/10/07 05:08:00;;;;;;;1.1;1.1;;;;;;;8.7;100.0;102240;;;;
2022/10/07 05:09:00;;;;;;;1.1;1.1;;;;;;;8.7;100.0;102240;;;;
2022/10/07 05:10:00;;;;;;;1.1;1.1;;;;;;;8.6;100.0;102240;;;;
2022/10/07 05:11:00;;;;;;;1.1;1.1;;;;;;;8.6;100.0;102240;;;;
2022/10/07 05:12:00;;;;;;;1.1;1.1;;;;;;;8.6;100.0;102240;;;;
2022/10/07 05:13:00;;;;;;;1.1;1.1;;;;;;;8.6;100.0;102240;;;;
2022/10/07 05:14:00;;;;;;;1.1;1.1;;;;;;;8.5;100.0;102240;;;;
2022/10/07 05:15:01;;;;;;;1.1;1.1;;;;;;;8.5;100.0;102240;;;;
2022/10/07 05:16:01;;;;;;;1.1;1.1;;;;;;;8.6;100.0;102240;;;;
2022/10/07 05:17:00;;;;;;;1.1;1.1;;;;;;;8.6;100.0;102240;;;;
2022/10/07 05:18:00;;;;;;;1.1;1.1;;;;;;;8.5;100.0;102240;;;;
2022/10/07 05:19:00;;;;;;;1.1;1.1;;;;;;;8.5;100.0;102240;;;;
2022/10/07 05:20:00;;;;;;;1.1;1.1;;;;;;;8.6;100.0;102230;;;;
2022/10/07 05:21:03;;;;;;;1.1;1.1;;;;;;;8.5;100.0;102230;;;;
2022/10/07 05:22:01;;;;;;;1.1;1.1;;;;;;;8.5;100.0;102230;;;;
2022/10/07 05:23:00;;;;;;;1.1;1.1;;;;;;;8.5;100.0;102230;;;;
2022/10/07 05:24:00;;;;;;;1.1;1.1;;;;;;;8.6;100.0;102230;;;;
2022/10/07 05:25:00;;;;;;;1.1;1.1;;;;;;;8.6;100.0;102230;;;;
2022/10/07 05:26:03;;;;;;;1.1;1.1;;;;;;;8.5;100.0;102230;;;;
2022/10/07 05:27:00;;;;;;;1.3;1.3;;;;;;;8.5;100.0;102230;;;;
2022/10/07 05:28:00;;;;;;;1.3;1.3;;;;;;;8.5;100.0;102230;;;;
2022/10/07 05:29:00;;;;;;;1.3;1.3;;;;;;;8.5;100.0;102230;;;;
2022/10/07 05:30:00;;;;;;;1.3;1.3;;;;;;;8.5;100.0;102220;;;;
2022/10/07 05:31:01;;;;;;;1.3;1.3;;;;;;;8.5;100.0;102220;;;;
2022/10/07 05:32:05;;;;;;;1.3;1.3;;;;;;;8.5;100.0;102220;;;;
2022/10/07 05:33:00;;;;;;;1.3;1.3;;;;;;;8.5;100.0;102220;;;;
2022/10/07 05:34:00;;;;;;;1.3;1.3;;;;;;;8.5;100.0;102220;;;;
2022/10/07 05:35:00;;;;;;;1.3;1.3;;;;;;;8.5;100.0;102220;;;;
2022/10/07 05:36:00;;;;;;;1.3;1.3;;;;;;;8.6;100.0;102220;;;;
2022/10/07 05:37:00;;;;;;;1.3;1.3;;;;;;;8.6;100.0;102220;;;;
2022/10/07 05:38:00;;;;;;;1.3;1.3;;;;;;;8.5;100.0;102230;;;;
2022/10/07 05:39:00;;;;;;;1.3;1.3;;;;;;;8.5;100.0;102230;;;;
2022/10/07 05:40:00;;;;;;;1.3;1.3;;;;;;;8.5;100.0;102220;;;;
2022/10/07 05:41:01;;;;;;;1.3;1.3;;;;;;;8.5;100.0;102220;;;;
2022/10/07 05:42:00;;;;;;;1.3;1.3;;;;;;;8.5;100.0;102220;;;;
2022/10/07 05:43:00;;;;;;;1.3;1.3;;;;;;;8.5;100.0;102220;;;;
2022/10/07 05:44:00;;;;;;;1.3;1.3;;;;;;;8.4;100.0;102220;;;;
2022/10/07 05:45:04;;;;;;;1.3;1.3;;;;;;;8.4;100.0;102220;;;;
2022/10/07 05:46:01;;;;;;;1.3;1.3;;;;;;;8.4;100.0;102220;;;;
2022/10/07 05:47:01;;;;;;;1.4;1.4;;;;;;;8.4;100.0;102220;;;;
2022/10/07 05:48:00;;;;;;;1.4;1.4;;;;;;;8.5;100.0;102220;;;;
2022/10/07 05:49:00;;;;;;;1.4;1.4;;;;;;;8.5;100.0;102220;;;;
2022/10/07 05:50:00;;;;;;;1.4;1.4;;;;;;;8.4;100.0;102220;;;;
2022/10/07 05:51:00;;;;;;;1.4;1.4;;;;;;;8.4;100.0;102220;;;;
2022/10/07 05:52:00;;;;;;;1.4;1.4;;;;;;;8.4;100.0;102220;;;;
2022/10/07 05:53:00;;;;;;;1.4;1.4;;;;;;;8.4;100.0;102220;;;;
2022/10/07 05:54:00;;;;;;;1.4;1.4;;;;;;;8.4;100.0;102220;;;;
2022/10/07 05:55:00;;;;;;;1.4;1.4;;;;;;;8.4;100.0;102220;;;;
2022/10/07 05:56:08;;;;;;;1.4;1.4;;;;;;;8.4;100.0;102220;;;;
2022/10/07 05:57:00;;;;;;;1.4;1.4;;;;;;;8.4;100.0;102220;;;;
2022/10/07 05:58:00;;;;;;;1.4;1.4;;;;;;;8.5;100.0;102220;;;;
2022/10/07 05:59:00;;;;;;;1.4;1.4;;;;;;;8.5;100.0;102220;;;;
2022/10/07 06:00:03;;;;;;;1.4;1.4;;;;;;;8.4;100.0;102220;;;;
2022/10/07 06:01:06;;;;;;;1.4;1.4;;;;;;;8.5;100.0;102210;;;;
2022/10/07 06:02:00;;;;;;;1.4;1.4;;;;;;;8.5;100.0;102210;;;;
2022/10/07 06:03:01;;;;;;;1.4;1.4;;;;;;;8.5;100.0;102210;;;;
2022/10/07 06:06:00;;;;;;;1.4;1.4;;;;;;;8.5;100.0;102200;;;;
2022/10/07 06:07:02;;;;;;;1.5;1.5;;;;;;;8.5;100.0;102200;;;;
2022/10/07 06:08:00;;;;;;;1.5;1.5;;;;;;;8.4;100.0;102200;;;;
2022/10/07 06:13:07;;;;;;;1.5;1.5;;;;;;;8.3;100.0;102200;;;;
2022/10/07 06:14:00;;;;;;;1.5;1.5;;;;;;;8.3;100.0;102200;;;;
2022/10/07 06:15:00;;;;;;;1.5;1.5;;;;;;;8.3;100.0;102200;;;;
2022/10/07 06:16:01;;;;;;;1.5;1.5;;;;;;;8.3;100.0;102200;;;;
2022/10/07 06:17:00;;;;;;;1.5;1.5;;;;;;;8.3;100.0;102200;;;;
2022/10/07 06:18:00;;;;;;;1.5;1.5;;;;;;;8.3;100.0;102200;;;;
2022/10/07 06:19:00;;;;;;;1.5;1.5;;;;;;;8.3;100.0;102200;;;;
2022/10/07 06:20:00;;;;;;;1.5;1.5;;;;;;;8.3;100.0;102200;;;;
2022/10/07 06:21:00;;;;;;;1.5;1.5;;;;;;;8.3;100.0;102200;;;;
2022/10/07 06:22:00;;;;;;;1.5;1.5;;;;;;;8.3;100.0;102200;;;;
2022/10/07 06:23:00;;;;;;;1.5;1.5;;;;;;;8.3;100.0;102200;;;;
2022/10/07 06:24:00;;;;;;;1.5;1.5;;;;;;;8.4;100.0;102200;;;;
2022/10/07 06:25:01;;;;;;;1.5;1.5;;;;;;;8.4;100.0;102200;;;;
2022/10/07 06:26:02;;;;;;;1.5;1.5;;;;;;;8.4;100.0;102200;;;;
2022/10/07 06:27:00;;;;;;;1.3;1.3;;;;;;;8.4;100.0;102200;;;;
2022/10/07 06:28:00;;;;;;;1.3;1.3;;;;;;;8.4;100.0;102200;;;;
2022/10/07 06:29:00;;;;;;;1.3;1.3;;;;;;;8.4;100.0;102200;;;;
2022/10/07 06:30:00;;;;;;;1.3;1.3;;;;;;;8.4;100.0;102200;;;;
2022/10/07 06:31:04;;;;;;;1.3;1.3;;;;;;;8.4;100.0;102200;;;;
2022/10/07 06:32:00;;;;;;;1.3;1.3;;;;;;;8.5;100.0;102200;;;;
2022/10/07 06:33:00;;;;;;;1.3;1.3;;;;;;;8.5;100.0;102200;;;;
2022/10/07 06:34:00;;;;;;;1.3;1.3;;;;;;;8.5;100.0;102200;;;;
2022/10/07 06:35:00;;;;;;;1.3;1.3;;;;;;;8.5;100.0;102200;;;;